Time;durP1;ratioP1;P1;durP2;ratioP2;P2;SDS_P1;SDS_P2;PMS_P1;PMS_P2;Temp;Humidity;BMP_temperature;BMP_pressure;BME280_temperature;BME280_humidity;BME280_pressure;Samples;Min_cycle;Max_cycle;Signal;HPM_P1;HPM_P2
2022/08/29 00:00:29;;;;;;;0.20;0.20;;;15.40;99.90;;;;;;5050287;28;20175;-81
2022/08/29 00:02:56;;;;;;;0.50;0.50;;;15.30;99.90;;;;;;5059670;28;20299;-81
2022/08/29 00:05:30;;;;;;;0.40;0.40;;;15.30;99.90;;;;;;5059905;28;20227;-81
2022/08/29 00:07:57;;;;;;;0.30;0.30;;;15.30;99.90;;;;;;5059806;28;20174;-81
2022/08/29 00:10:23;;;;;;;0.30;0.30;;;15.30;99.90;;;;;;5059222;28;20174;-80
2022/08/29 00:12:49;;;;;;;0.30;0.30;;;15.40;99.90;;;;;;5058327;28;20195;-81
2022/08/29 00:15:15;;;;;;;0.30;0.30;;;15.30;99.90;;;;;;5047864;28;20192;-81
2022/08/29 00:17:41;;;;;;;0.33;0.33;;;15.30;99.90;;;;;;5042601;28;20242;-81
2022/08/29 00:20:09;;;;;;;0.43;0.43;;;15.30;99.90;;;;;;5043776;28;20176;-81
2022/08/29 00:22:35;;;;;;;0.40;0.40;;;15.20;99.90;;;;;;5042763;28;20184;-82
2022/08/29 00:25:03;;;;;;;0.40;0.40;;;15.30;99.90;;;;;;5044701;28;20287;-83
2022/08/29 00:27:30;;;;;;;0.40;0.40;;;15.20;99.90;;;;;;5045358;28;20205;-81
2022/08/29 00:29:56;;;;;;;0.40;0.40;;;15.30;99.90;;;;;;5047397;28;20176;-81
2022/08/29 00:32:21;;;;;;;0.37;0.37;;;15.30;99.90;;;;;;5047515;28;20178;-82
2022/08/29 00:34:47;;;;;;;0.30;0.30;;;15.30;99.90;;;;;;5048606;28;20214;-82
2022/08/29 00:37:12;;;;;;;0.50;0.50;;;15.00;99.90;;;;;;5056675;28;20266;-81
2022/08/29 00:39:38;;;;;;;0.30;0.30;;;15.40;99.90;;;;;;5057020;28;20186;-81
2022/08/29 00:42:04;;;;;;;0.30;0.30;;;15.10;99.90;;;;;;5057483;28;20229;-81
2022/08/29 00:44:30;;;;;;;0.50;0.50;;;15.00;99.90;;;;;;5043299;28;20208;-81
2022/08/29 00:47:02;;;;;;;0.40;0.40;;;15.00;99.90;;;;;;5041852;28;20260;-81
2022/08/29 00:49:40;;;;;;;0.30;0.30;;;15.10;99.90;;;;;;5041496;28;20176;-81
2022/08/29 00:52:16;;;;;;;0.30;0.30;;;15.00;99.90;;;;;;5040562;28;20176;-81
2022/08/29 00:54:46;;;;;;;0.40;0.40;;;15.10;99.90;;;;;;5040165;28;20219;-81
2022/08/29 00:57:12;;;;;;;0.40;0.40;;;15.80;99.90;;;;;;5041828;28;20176;-81
2022/08/29 00:59:39;;;;;;;0.50;0.50;;;15.00;99.90;;;;;;5040657;28;20644;-82
2022/08/29 01:02:06;;;;;;;0.40;0.40;;;15.00;99.90;;;;;;5043062;28;20596;-82
2022/08/29 01:04:33;;;;;;;0.50;0.50;;;15.10;99.90;;;;;;5043318;28;20219;-81
2022/08/29 01:06:59;;;;;;;0.50;0.50;;;15.00;99.90;;;;;;5042810;28;20180;-81
2022/08/29 01:09:25;;;;;;;0.47;0.47;;;15.00;99.90;;;;;;5042512;28;20184;-82
2022/08/29 01:14:37;;;;;;;0.50;0.50;;;14.90;99.90;;;;;;5044867;28;20202;-82
2022/08/29 01:17:05;;;;;;;0.50;0.50;;;14.80;99.90;;;;;;5045032;28;20542;-81
2022/08/29 01:19:44;;;;;;;0.37;0.37;;;14.60;99.90;;;;;;5045292;28;20188;-83
2022/08/29 01:22:28;;;;;;;0.40;0.40;;;14.70;99.90;;;;;;5043545;28;20168;-83
2022/08/29 01:24:57;;;;;;;0.30;0.30;;;14.80;99.90;;;;;;5041187;28;20208;-81
2022/08/29 01:27:28;;;;;;;0.40;0.40;;;14.60;99.90;;;;;;5041071;28;20206;-81
2022/08/29 01:29:54;;;;;;;0.30;0.30;;;14.60;99.90;;;;;;5039952;28;20176;-81
2022/08/29 01:32:20;;;;;;;0.40;0.40;;;14.50;99.90;;;;;;5042500;28;20178;-81
2022/08/29 01:34:45;;;;;;;0.30;0.30;;;14.30;99.90;;;;;;5040989;28;20283;-81
2022/08/29 01:37:13;;;;;;;0.40;0.40;;;14.40;99.90;;;;;;5042039;28;20200;-81
2022/08/29 01:39:41;;;;;;;0.50;0.50;;;14.50;99.90;;;;;;5042466;28;20629;-81
2022/08/29 01:42:14;;;;;;;0.40;0.40;;;14.50;99.90;;;;;;5043483;28;20187;-81
2022/08/29 01:44:41;;;;;;;0.37;0.37;;;14.40;99.90;;;;;;5043053;28;20218;-81
2022/08/29 01:47:08;;;;;;;0.50;0.50;;;14.50;99.90;;;;;;5044351;28;20235;-81
2022/08/29 01:49:35;;;;;;;0.50;0.50;;;14.50;99.90;;;;;;5044529;28;20180;-81
2022/08/29 01:52:01;;;;;;;0.33;0.33;;;14.50;99.90;;;;;;5044086;28;20326;-80
2022/08/29 01:54:29;;;;;;;0.40;0.40;;;14.40;99.90;;;;;;5044180;28;20665;-81
2022/08/29 01:56:55;;;;;;;0.43;0.43;;;14.40;99.90;;;;;;5044396;28;20182;-81
2022/08/29 01:59:25;;;;;;;0.50;0.50;;;14.40;99.90;;;;;;5042552;28;20188;-81
2022/08/29 02:02:00;;;;;;;0.40;0.40;;;14.40;99.90;;;;;;5041421;28;20180;-82
2022/08/29 02:04:26;;;;;;;0.40;0.40;;;14.40;99.90;;;;;;5042624;28;20215;-81
2022/08/29 02:06:52;;;;;;;0.50;0.50;;;14.40;99.90;;;;;;5044565;28;20188;-82
2022/08/29 02:09:17;;;;;;;0.40;0.40;;;14.40;99.90;;;;;;5044243;28;20180;-81
2022/08/29 02:11:45;;;;;;;0.50;0.50;;;14.30;99.90;;;;;;5043627;28;20211;-82
2022/08/29 02:14:11;;;;;;;0.40;0.40;;;14.20;99.90;;;;;;5042279;28;20199;-81
2022/08/29 02:16:37;;;;;;;0.50;0.50;;;14.10;99.90;;;;;;5042700;28;20176;-81
2022/08/29 02:19:02;;;;;;;0.50;0.50;;;14.10;99.90;;;;;;5042647;28;20187;-81
2022/08/29 02:21:29;;;;;;;0.40;0.40;;;14.20;99.90;;;;;;5043814;28;20220;-82
2022/08/29 02:23:57;;;;;;;0.40;0.40;;;14.30;99.90;;;;;;5042726;28;20268;-81
2022/08/29 02:26:23;;;;;;;0.43;0.43;;;14.20;99.90;;;;;;5044197;28;20179;-81
2022/08/29 02:28:50;;;;;;;0.40;0.40;;;14.10;99.90;;;;;;5044082;28;20168;-81
2022/08/29 02:31:17;;;;;;;0.50;0.50;;;14.10;99.90;;;;;;5042885;28;20171;-81
2022/08/29 02:33:42;;;;;;;0.40;0.40;;;14.20;99.90;;;;;;5042731;28;20188;-82
2022/08/29 02:36:08;;;;;;;0.50;0.50;;;14.20;99.90;;;;;;5043170;28;20176;-82
2022/08/29 02:38:34;;;;;;;0.40;0.40;;;14.10;99.90;;;;;;5042179;28;20199;-82
2022/08/29 02:41:00;;;;;;;0.50;0.50;;;14.10;99.90;;;;;;5042526;28;20184;-82
2022/08/29 02:43:26;;;;;;;0.40;0.40;;;14.10;99.90;;;;;;5043526;28;20591;-83
2022/08/29 02:45:52;;;;;;;0.40;0.40;;;13.60;99.90;;;;;;5044159;28;20583;-82
2022/08/29 02:48:19;;;;;;;0.50;0.50;;;14.10;99.90;;;;;;5044349;28;20772;-83
2022/08/29 02:50:47;;;;;;;0.60;0.60;;;14.10;99.90;;;;;;5044662;28;20179;-83
2022/08/29 02:53:15;;;;;;;0.40;0.40;;;14.10;99.90;;;;;;5044567;28;20329;-82
2022/08/29 02:55:41;;;;;;;0.60;0.60;;;14.10;99.90;;;;;;5044201;28;20172;-82
2022/08/29 02:58:07;;;;;;;0.43;0.43;;;14.10;99.90;;;;;;5042575;28;20183;-82
2022/08/29 03:00:34;;;;;;;0.50;0.50;;;14.00;99.90;;;;;;5043022;28;20183;-82
2022/08/29 03:03:01;;;;;;;0.50;0.50;;;14.00;99.90;;;;;;5044229;28;20200;-82
2022/08/29 03:05:29;;;;;;;0.50;0.50;;;14.00;99.90;;;;;;5043188;28;20349;-81
2022/08/29 03:07:56;;;;;;;0.50;0.50;;;14.00;99.90;;;;;;5044507;28;20283;-83
2022/08/29 03:10:23;;;;;;;0.50;0.50;;;14.00;99.90;;;;;;5044634;28;20494;-82
2022/08/29 03:12:48;;;;;;;0.60;0.60;;;13.90;99.90;;;;;;5045019;28;20203;-82
2022/08/29 03:15:16;;;;;;;0.60;0.60;;;13.90;99.90;;;;;;5045791;28;20184;-83
2022/08/29 03:17:43;;;;;;;0.60;0.60;;;13.70;99.90;;;;;;5045462;28;20176;-82
2022/08/29 03:20:10;;;;;;;0.40;0.40;;;13.70;99.90;;;;;;5048353;28;20210;-82
2022/08/29 03:22:36;;;;;;;0.50;0.50;;;13.80;99.90;;;;;;5049752;28;20184;-83
2022/08/29 03:25:04;;;;;;;0.40;0.40;;;13.80;99.90;;;;;;5049509;28;20203;-83
2022/08/29 03:27:30;;;;;;;0.50;0.50;;;13.80;99.90;;;;;;5049733;28;20172;-82
2022/08/29 03:29:56;;;;;;;0.50;0.50;;;13.80;99.90;;;;;;5049661;28;20176;-82
2022/08/29 03:32:22;;;;;;;0.40;0.40;;;13.80;99.90;;;;;;5050059;28;20172;-82
2022/08/29 03:34:49;;;;;;;0.50;0.50;;;13.80;99.90;;;;;;5050314;28;20243;-83
2022/08/29 03:37:14;;;;;;;0.47;0.47;;;13.70;99.90;;;;;;5056859;28;20195;-84
2022/08/29 03:39:40;;;;;;;0.50;0.50;;;13.60;99.90;;;;;;5060221;28;20183;-82
2022/08/29 03:42:07;;;;;;;0.40;0.40;;;13.70;99.90;;;;;;5060521;28;20156;-83
2022/08/29 03:44:34;;;;;;;0.50;0.50;;;13.70;99.90;;;;;;5060078;28;20298;-83
2022/08/29 03:47:00;;;;;;;0.50;0.50;;;13.70;99.90;;;;;;5060042;28;20175;-83
2022/08/29 03:49:25;;;;;;;0.50;0.50;;;13.70;99.90;;;;;;5058128;28;20243;-82
2022/08/29 03:51:51;;;;;;;0.40;0.40;;;13.60;99.90;;;;;;5045808;28;20687;-81
2022/08/29 03:54:16;;;;;;;0.40;0.40;;;13.60;99.90;;;;;;5042512;28;20236;-81
2022/08/29 03:56:42;;;;;;;0.40;0.40;;;13.50;99.90;;;;;;5043192;28;20207;-81
2022/08/29 03:59:10;;;;;;;0.40;0.40;;;13.50;99.90;;;;;;5042851;28;20172;-81
2022/08/29 04:01:35;;;;;;;0.50;0.50;;;13.50;99.90;;;;;;5043684;28;20183;-81
2022/08/29 04:04:01;;;;;;;0.50;0.50;;;13.50;99.90;;;;;;5042677;28;20204;-81
2022/08/29 04:06:27;;;;;;;0.40;0.40;;;13.50;99.90;;;;;;5044126;28;20175;-81
2022/08/29 04:08:53;;;;;;;0.40;0.40;;;13.40;99.90;;;;;;5043390;28;20180;-83
2022/08/29 04:11:21;;;;;;;0.50;0.50;;;13.40;99.90;;;;;;5043208;28;20168;-82
2022/08/29 04:13:47;;;;;;;0.50;0.50;;;13.50;99.90;;;;;;5042932;28;20200;-81
2022/08/29 04:16:18;;;;;;;0.47;0.47;;;13.40;99.90;;;;;;5043782;28;20183;-81
2022/08/29 04:18:45;;;;;;;0.47;0.47;;;13.50;99.90;;;;;;5043492;28;20211;-82
2022/08/29 04:21:11;;;;;;;0.50;0.50;;;13.30;99.90;;;;;;5044684;28;20210;-82
2022/08/29 04:23:39;;;;;;;0.60;0.60;;;13.30;99.90;;;;;;5044998;28;20222;-81
2022/08/29 04:26:11;;;;;;;0.60;0.60;;;13.30;99.90;;;;;;5045286;28;20203;-81
2022/08/29 04:28:36;;;;;;;0.60;0.60;;;13.30;99.90;;;;;;5045107;28;20171;-82
2022/08/29 04:31:02;;;;;;;0.50;0.50;;;13.30;99.90;;;;;;5046239;28;20186;-81
2022/08/29 04:33:28;;;;;;;0.40;0.40;;;13.30;99.90;;;;;;5047946;28;20206;-81
2022/08/29 04:35:54;;;;;;;0.50;0.50;;;13.30;99.90;;;;;;5047013;28;20240;-83
2022/08/29 04:38:20;;;;;;;0.40;0.40;;;13.20;99.90;;;;;;5055334;28;20196;-80
2022/08/29 04:40:46;;;;;;;0.50;0.50;;;13.20;99.90;;;;;;5056732;28;20191;-82
2022/08/29 04:43:12;;;;;;;0.50;0.50;;;13.30;99.90;;;;;;5056221;28;20184;-81
2022/08/29 04:45:40;;;;;;;0.50;0.50;;;13.30;99.90;;;;;;5043719;28;20190;-83
2022/08/29 04:48:07;;;;;;;0.50;0.50;;;13.30;99.90;;;;;;5044396;28;20526;-81
2022/08/29 04:50:33;;;;;;;0.40;0.40;;;13.20;99.90;;;;;;5043120;28;20650;-82
2022/08/29 04:53:00;;;;;;;0.40;0.40;;;13.20;99.90;;;;;;5043170;28;20196;-82
2022/08/29 04:55:26;;;;;;;0.30;0.30;;;13.30;99.90;;;;;;5042734;28;20203;-81
2022/08/29 04:57:55;;;;;;;0.43;0.43;;;13.20;99.90;;;;;;5042406;28;20179;-82
2022/08/29 05:00:26;;;;;;;0.40;0.40;;;13.30;99.90;;;;;;5040583;28;20210;-82
2022/08/29 05:02:51;;;;;;;0.40;0.40;;;13.30;99.90;;;;;;5042275;28;20206;-83
2022/08/29 05:05:17;;;;;;;0.43;0.43;;;13.40;99.90;;;;;;5044187;28;20795;-83
2022/08/29 05:07:45;;;;;;;0.40;0.40;;;13.50;99.90;;;;;;5041436;28;20184;-83
2022/08/29 05:10:16;;;;;;;0.40;0.40;;;13.60;99.90;;;;;;5049365;28;20188;-83
2022/08/29 05:12:42;;;;;;;0.40;0.40;;;13.60;99.90;;;;;;5057042;28;20188;-83
2022/08/29 05:15:08;;;;;;;0.43;0.43;;;13.70;99.90;;;;;;5056852;28;20262;-83
2022/08/29 05:17:34;;;;;;;0.40;0.40;;;13.70;99.90;;;;;;5033786;28;20177;-83
2022/08/29 05:20:00;;;;;;;0.40;0.40;;;13.70;99.90;;;;;;5033806;28;20258;-83
2022/08/29 05:22:25;;;;;;;0.40;0.40;;;13.80;99.90;;;;;;5023252;28;20214;-82
2022/08/29 05:24:52;;;;;;;0.40;0.40;;;13.80;99.90;;;;;;5037967;28;20219;-83
2022/08/29 05:27:20;;;;;;;0.43;0.43;;;13.80;99.90;;;;;;5033145;28;20172;-83
2022/08/29 05:29:47;;;;;;;0.40;0.40;;;14.00;99.90;;;;;;5038083;28;20191;-84
2022/08/29 05:32:14;;;;;;;0.40;0.40;;;14.30;99.90;;;;;;5045922;28;20644;-83
2022/08/29 05:34:41;;;;;;;0.30;0.30;;;14.40;99.90;;;;;;5059436;28;20191;-82
2022/08/29 05:37:10;;;;;;;0.47;0.47;;;13.60;99.90;;;;;;5059195;28;20262;-83
2022/08/29 05:39:37;;;;;;;0.37;0.37;;;13.60;99.90;;;;;;5053457;28;20621;-83
2022/08/29 05:42:04;;;;;;;0.50;0.50;;;13.70;99.90;;;;;;5036408;28;20179;-82
2022/08/29 05:44:32;;;;;;;0.40;0.40;;;13.60;99.90;;;;;;5045450;28;20313;-83
2022/08/29 05:46:59;;;;;;;0.50;0.50;;;13.80;99.90;;;;;;5038575;28;20172;-83
2022/08/29 05:49:26;;;;;;;0.40;0.40;;;14.30;99.90;;;;;;5040255;28;20180;-84
2022/08/29 05:51:53;;;;;;;0.40;0.40;;;14.70;99.90;;;;;;5035667;28;20267;-78
2022/08/29 05:54:18;;;;;;;0.40;0.40;;;14.70;99.90;;;;;;5040432;28;20230;-78
2022/08/29 05:56:44;;;;;;;0.50;0.50;;;14.70;99.90;;;;;;5035609;28;20187;-79
2022/08/29 05:59:10;;;;;;;0.40;0.40;;;14.60;99.90;;;;;;5040958;28;20579;-79
2022/08/29 06:01:36;;;;;;;0.30;0.30;;;14.70;99.90;;;;;;5043739;28;20174;-84
2022/08/29 06:04:02;;;;;;;0.50;0.50;;;14.90;99.90;;;;;;5045425;28;20628;-80
2022/08/29 06:06:28;;;;;;;0.30;0.30;;;14.80;99.90;;;;;;5053074;28;20176;-81
2022/08/29 06:08:55;;;;;;;0.50;0.50;;;14.60;99.90;;;;;;5040602;28;20238;-84
2022/08/29 06:11:25;;;;;;;0.40;0.40;;;14.80;99.90;;;;;;5045892;28;20179;-81
2022/08/29 06:13:59;;;;;;;0.40;0.40;;;15.10;99.90;;;;;;5039590;28;20688;-81
2022/08/29 06:16:26;;;;;;;0.37;0.37;;;15.60;99.90;;;;;;5033396;28;20199;-82
2022/08/29 06:18:52;;;;;;;0.40;0.40;;;16.10;99.90;;;;;;5030906;28;20199;-82
2022/08/29 06:21:18;;;;;;;0.30;0.30;;;16.20;99.90;;;;;;5035205;28;20584;-81
2022/08/29 06:23:45;;;;;;;0.40;0.40;;;16.20;99.90;;;;;;5033804;28;20241;-81
2022/08/29 06:26:12;;;;;;;0.40;0.40;;;16.30;99.90;;;;;;5035753;28;20259;-80
2022/08/29 06:28:40;;;;;;;0.40;0.40;;;16.30;99.90;;;;;;5043134;28;20180;-79
2022/08/29 06:31:12;;;;;;;0.50;0.50;;;16.20;99.90;;;;;;5046531;28;20176;-81
2022/08/29 06:33:38;;;;;;;0.30;0.30;;;16.20;99.90;;;;;;5043029;28;20197;-80
2022/08/29 06:36:05;;;;;;;0.43;0.43;;;16.40;99.90;;;;;;5048067;28;20202;-80
2022/08/29 06:38:40;;;;;;;0.30;0.30;;;16.50;99.90;;;;;;5051346;28;20168;-81
2022/08/29 06:41:09;;;;;;;0.40;0.40;;;16.70;99.90;;;;;;5048494;28;20205;-80
2022/08/29 06:43:34;;;;;;;0.47;0.47;;;17.00;99.90;;;;;;5057611;28;20183;-79
2022/08/29 06:46:00;;;;;;;0.40;0.40;;;17.20;99.90;;;;;;5045915;28;20279;-79
2022/08/29 06:48:26;;;;;;;0.40;0.40;;;16.70;99.90;;;;;;5053696;28;20190;-79
2022/08/29 06:50:52;;;;;;;0.40;0.40;;;16.90;99.90;;;;;;5051318;28;20206;-80
2022/08/29 06:53:18;;;;;;;0.30;0.30;;;17.20;99.90;;;;;;5050625;28;20214;-81
2022/08/29 06:55:44;;;;;;;0.40;0.40;;;17.70;99.90;;;;;;5031035;28;20180;-80
2022/08/29 06:58:12;;;;;;;0.37;0.37;;;18.50;1.00;;;;;;5051552;28;20180;-79
2022/08/29 07:00:42;;;;;;;0.37;0.37;;;18.90;1.00;;;;;;5047243;28;20183;-81
2022/08/29 07:03:08;;;;;;;0.40;0.40;;;18.40;1.00;;;;;;5051446;28;20623;-81
2022/08/29 07:05:34;;;;;;;0.30;0.30;;;18.60;1.00;;;;;;5062025;28;20651;-82
2022/08/29 07:08:00;;;;;;;0.33;0.33;;;18.60;1.00;;;;;;5045140;28;20177;-82
2022/08/29 07:10:26;;;;;;;0.30;0.30;;;18.70;1.00;;;;;;5044096;28;20911;-82
2022/08/29 07:12:52;;;;;;;0.30;0.30;;;18.70;1.00;;;;;;5049205;28;20188;-82
2022/08/29 07:15:20;;;;;;;0.30;0.30;;;19.00;1.00;;;;;;5050668;28;20207;-81
2022/08/29 07:17:46;;;;;;;0.30;0.30;;;19.10;1.00;;;;;;5044594;28;20559;-80
2022/08/29 07:20:13;;;;;;;0.30;0.30;;;20.10;1.00;;;;;;5046961;28;20704;-81
2022/08/29 07:22:39;;;;;;;0.30;0.30;;;21.20;1.00;;;;;;5048107;28;20183;-81
2022/08/29 07:25:06;;;;;;;0.37;0.37;;;21.80;99.90;;;;;;5049942;28;20228;-81
2022/08/29 07:27:32;;;;;;;0.47;0.47;;;22.20;1.00;;;;;;5049122;28;20191;-81
2022/08/29 07:29:59;;;;;;;0.30;0.30;;;22.20;1.00;;;;;;5050324;28;20183;-81
2022/08/29 07:32:25;;;;;;;0.30;0.30;;;22.40;1.00;;;;;;5049638;28;20175;-80
2022/08/29 07:34:50;;;;;;;0.50;0.50;;;22.60;99.90;;;;;;5048222;28;20187;-80
2022/08/29 07:37:16;;;;;;;0.50;0.50;;;22.90;99.90;;;;;;5047822;28;20223;-80
2022/08/29 07:39:41;;;;;;;0.50;0.50;;;23.20;99.90;;;;;;5058625;28;20259;-81
2022/08/29 07:42:07;;;;;;;0.50;0.50;;;23.00;99.90;;;;;;5047087;28;20179;-80
2022/08/29 07:44:33;;;;;;;0.70;0.70;;;23.30;99.90;;;;;;5048766;28;20212;-81
2022/08/29 07:47:00;;;;;;;0.60;0.60;;;23.20;99.90;;;;;;5048170;28;20748;-80
2022/08/29 07:49:27;;;;;;;0.53;0.53;;;23.60;99.90;;;;;;5048560;28;20191;-81
2022/08/29 07:51:54;;;;;;;0.60;0.60;;;23.70;1.00;;;;;;5049699;28;20180;-81
2022/08/29 07:54:21;;;;;;;0.40;0.40;;;23.90;1.00;;;;;;5053411;28;20250;-81
2022/08/29 07:56:48;;;;;;;0.60;0.60;;;23.60;1.00;;;;;;5054567;28;20180;-80
2022/08/29 07:59:15;;;;;;;0.53;0.53;;;24.40;1.00;;;;;;5046145;28;20184;-80
2022/08/29 08:01:43;;;;;;;0.50;0.50;;;25.00;1.00;;;;;;5050357;28;20195;-81
2022/08/29 08:04:10;;;;;;;0.57;0.57;;;25.20;1.00;;;;;;5053503;28;20263;-80
2022/08/29 08:06:37;;;;;;;0.40;0.40;;;25.30;1.00;;;;;;5050902;28;20183;-80
2022/08/29 08:09:04;;;;;;;0.47;0.47;;;25.00;1.00;;;;;;5046696;28;20210;-80
2022/08/29 08:11:29;;;;;;;0.40;0.40;;;25.00;1.00;;;;;;5046154;28;20253;-80
2022/08/29 08:13:56;;;;;;;0.20;0.20;;;25.20;1.00;;;;;;5055014;28;20212;-80
2022/08/29 08:16:24;;;;;;;0.30;0.30;;;25.00;1.00;;;;;;5057925;28;20176;-78
2022/08/29 08:18:51;;;;;;;0.17;0.17;;;25.40;1.00;;;;;;5048080;28;20179;-80
2022/08/29 08:21:17;;;;;;;0.30;0.30;;;25.70;1.00;;;;;;5044056;28;20266;-80
2022/08/29 08:23:44;;;;;;;0.20;0.20;;;25.80;1.00;;;;;;5050244;28;20200;-81
2022/08/29 08:26:11;;;;;;;0.10;0.10;;;26.10;1.00;;;;;;5040946;28;20187;-82
2022/08/29 08:28:37;;;;;;;0.13;0.13;;;26.30;1.00;;;;;;5045338;28;20188;-81
2022/08/29 08:31:06;;;;;;;0.20;0.20;;;26.50;1.00;;;;;;5050510;28;20180;-80
2022/08/29 08:33:37;;;;;;;0.10;0.10;;;26.60;1.00;;;;;;5061797;28;20176;-81
2022/08/29 08:36:05;;;;;;;0.10;0.10;;;27.00;1.00;;;;;;5049945;28;20247;-81
2022/08/29 08:38:30;;;;;;;0.10;0.10;;;26.80;1.00;;;;;;5048838;28;20197;-80
2022/08/29 08:41:06;;;;;;;0.25;0.25;;;26.80;1.00;;;;;;5047988;28;20254;-82
2022/08/29 08:43:53;;;;;;;0.10;0.10;;;26.90;1.00;;;;;;5032340;28;20194;-83
2022/08/29 08:46:38;;;;;;;0.10;0.10;;;27.10;1.00;;;;;;5032146;28;20263;-82
2022/08/29 08:49:35;;;;;;;0.28;0.28;;;27.00;1.00;;;;;;5035976;28;20182;-80
2022/08/29 08:52:16;;;;;;;0.10;0.10;;;27.20;1.00;;;;;;5037226;28;20190;-81
2022/08/29 08:54:51;;;;;;;0.05;0.05;;;27.30;1.00;;;;;;5047253;28;20214;-81
2022/08/29 08:57:19;;;;;;;0.10;0.10;;;27.30;1.00;;;;;;5054583;28;20648;-82
2022/08/29 08:59:52;;;;;;;0.00;0.00;;;27.60;1.00;;;;;;5033685;28;20185;-81
2022/08/29 09:03:03;;;;;;;0.10;0.10;;;27.60;1.00;;;;;;5050126;28;20187;-83
2022/08/29 09:05:46;;;;;;;0.05;0.05;;;27.70;1.00;;;;;;5039183;28;20299;-82
2022/08/29 09:08:36;;;;;;;0.13;0.13;;;27.30;1.00;;;;;;5036664;28;20630;-82
2022/08/29 09:11:05;;;;;;;0.10;0.10;;;27.50;1.00;;;;;;5049679;28;20264;-83
2022/08/29 09:13:42;;;;;;;0.10;0.10;;;27.50;1.00;;;;;;5050348;28;20196;-81
2022/08/29 09:16:26;;;;;;;0.10;0.10;;;27.20;1.00;;;;;;5040732;28;20271;-81
2022/08/29 09:18:51;;;;;;;0.10;0.10;;;27.90;1.00;;;;;;5034644;28;20167;-87
2022/08/29 09:21:20;;;;;;;0.10;0.10;;;28.50;1.00;;;;;;5032752;28;20176;-84
2022/08/29 09:23:49;;;;;;;0.13;0.13;;;28.20;1.00;;;;;;5035113;28;20307;-83
2022/08/29 09:26:16;;;;;;;0.17;0.17;;;27.80;1.00;;;;;;5038410;28;20171;-81
2022/08/29 09:28:42;;;;;;;0.30;0.30;;;27.90;1.00;;;;;;5019561;28;20179;-81
2022/08/29 09:31:33;;;;;;;0.10;0.10;;;28.20;1.00;;;;;;5043080;28;20271;-81
2022/08/29 09:34:03;;;;;;;0.40;0.40;;;27.30;1.00;;;;;;5021937;28;20207;-80
2022/08/29 09:36:45;;;;;;;0.10;0.10;;;28.10;1.00;;;;;;5015750;28;20707;-82
2022/08/29 09:39:12;;;;;;;0.10;0.10;;;28.40;1.00;;;;;;5015505;28;20211;-82
2022/08/29 09:41:38;;;;;;;0.20;0.20;;;28.00;1.00;;;;;;5023776;28;20175;-81
2022/08/29 09:44:05;;;;;;;0.20;0.20;;;28.10;1.00;;;;;;5034761;28;20307;-81
2022/08/29 09:46:31;;;;;;;0.32;0.32;;;28.00;1.00;;;;;;5036360;28;20431;-82
2022/08/29 09:48:56;;;;;;;0.15;0.15;;;27.90;1.00;;;;;;5037141;28;20186;-81
2022/08/29 09:51:31;;;;;;;0.10;0.10;;;28.30;1.00;;;;;;5039435;28;20910;-81
2022/08/29 09:54:23;;;;;;;0.20;0.20;;;28.60;1.00;;;;;;5026843;28;20207;-81
2022/08/29 09:57:12;;;;;;;0.22;0.22;;;28.80;1.00;;;;;;5035864;28;20191;-81
2022/08/29 09:59:42;;;;;;;0.25;0.25;;;28.60;1.00;;;;;;5044487;28;20261;-82
2022/08/29 10:02:20;;;;;;;0.10;0.10;;;28.90;1.00;;;;;;5034833;28;20185;-81
2022/08/29 10:05:00;;;;;;;0.10;0.10;;;29.70;1.00;;;;;;5032939;28;20268;-85
2022/08/29 10:07:30;;;;;;;0.10;0.10;;;30.10;1.00;;;;;;5034038;28;20175;-81
2022/08/29 10:10:12;;;;;;;0.13;0.13;;;30.30;1.00;;;;;;5039133;28;20192;-79
2022/08/29 10:13:06;;;;;;;0.10;0.10;;;30.00;1.00;;;;;;5040254;28;20256;-78
2022/08/29 10:15:40;;;;;;;0.20;0.20;;;29.60;1.00;;;;;;5037940;28;20185;-79
2022/08/29 10:18:35;;;;;;;0.10;0.10;;;30.10;1.00;;;;;;5039977;28;20206;-80
2022/08/29 10:21:23;;;;;;;0.10;0.10;;;29.90;1.00;;;;;;5044558;28;20194;-79
2022/08/29 10:24:23;;;;;;;0.10;0.10;;;30.30;1.00;;;;;;5041997;28;20247;-80
2022/08/29 10:26:55;;;;;;;0.05;0.05;;;30.20;1.00;;;;;;5036292;28;20271;-81
2022/08/29 10:29:30;;;;;;;0.15;0.15;;;30.30;1.00;;;;;;5041873;28;20189;-80
2022/08/29 10:32:31;;;;;;;0.20;0.20;;;30.80;1.00;;;;;;5042457;28;20182;-82
2022/08/29 10:35:15;;;;;;;0.05;0.05;;;30.80;1.00;;;;;;5029035;28;20277;-81
2022/08/29 10:38:12;;;;;;;0.13;0.13;;;30.30;1.00;;;;;;5032479;28;20224;-81
2022/08/29 10:40:48;;;;;;;0.10;0.10;;;30.70;1.00;;;;;;5026587;28;20200;-83
2022/08/29 10:43:20;;;;;;;0.20;0.20;;;30.90;1.00;;;;;;5033048;28;20290;-82
2022/08/29 10:46:02;;;;;;;0.10;0.10;;;31.20;1.00;;;;;;5043826;28;20221;-81
2022/08/29 10:48:36;;;;;;;0.13;0.13;;;31.20;1.00;;;;;;5030656;28;20192;-81
2022/08/29 10:51:15;;;;;;;0.22;0.22;;;30.20;1.00;;;;;;5030396;28;20475;-80
2022/08/29 10:53:45;;;;;;;0.20;0.20;;;30.10;1.00;;;;;;5029702;28;20191;-83
2022/08/29 10:56:22;;;;;;;0.40;0.40;;;28.90;1.00;;;;;;5034474;28;20199;-82
2022/08/29 10:59:01;;;;;;;0.60;0.60;;;27.80;1.00;;;;;;5033124;28;20175;-80
2022/08/29 11:01:37;;;;;;;0.50;0.50;;;27.20;1.00;;;;;;5026669;28;20179;-82
2022/08/29 11:04:09;;;;;;;0.50;0.50;;;26.70;1.00;;;;;;5033304;28;20226;-80
2022/08/29 11:06:41;;;;;;;0.50;0.50;;;26.50;1.00;;;;;;5033662;28;20176;-81
2022/08/29 11:09:16;;;;;;;0.50;0.50;;;26.90;1.00;;;;;;5031646;28;20553;-81
2022/08/29 11:11:58;;;;;;;0.57;0.57;;;27.40;1.00;;;;;;5032631;28;20207;-82
2022/08/29 11:14:31;;;;;;;0.50;0.50;;;28.30;1.00;;;;;;5040844;28;20737;-80
2022/08/29 11:16:58;;;;;;;0.60;0.60;;;28.90;1.00;;;;;;5035299;28;20339;-80
2022/08/29 11:19:31;;;;;;;0.60;0.60;;;29.30;1.00;;;;;;5031656;28;20271;-79
2022/08/29 11:22:22;;;;;;;0.50;0.50;;;29.10;1.00;;;;;;5035019;28;20238;-80
2022/08/29 11:25:00;;;;;;;0.50;0.50;;;29.30;1.00;;;;;;5037131;28;20211;-79
2022/08/29 11:27:35;;;;;;;0.60;0.60;;;29.40;1.00;;;;;;5045117;28;20636;-79
2022/08/29 11:30:28;;;;;;;0.60;0.60;;;29.80;1.00;;;;;;5035019;28;20175;-79
2022/08/29 11:33:08;;;;;;;0.50;0.50;;;30.10;1.00;;;;;;5042829;28;20202;-80
2022/08/29 11:36:04;;;;;;;0.60;0.60;;;29.90;1.00;;;;;;5043976;28;20658;-82
2022/08/29 11:39:12;;;;;;;0.70;0.70;;;29.30;1.00;;;;;;4999986;28;20195;-80
2022/08/29 11:41:43;;;;;;;0.60;0.60;;;29.70;1.00;;;;;;5031827;28;20245;-80
2022/08/29 11:44:30;;;;;;;0.50;0.50;;;29.90;1.00;;;;;;5041134;28;20211;-81
2022/08/29 11:46:56;;;;;;;0.67;0.67;;;29.90;1.00;;;;;;5037807;28;20243;-81
2022/08/29 11:49:38;;;;;;;0.50;0.50;;;30.70;1.00;;;;;;5040357;28;20191;-81
2022/08/29 11:52:09;;;;;;;0.60;0.60;;;31.20;1.00;;;;;;5025644;28;20191;-80
2022/08/29 11:54:35;;;;;;;0.50;0.50;;;30.70;1.00;;;;;;5038579;28;20215;-79
2022/08/29 11:57:01;;;;;;;0.60;0.60;;;30.90;1.00;;;;;;5039828;28;20471;-80
2022/08/29 11:59:47;;;;;;;0.53;0.53;;;31.20;1.00;;;;;;5040966;28;20226;-81
2022/08/29 12:02:30;;;;;;;0.60;0.60;;;31.40;1.00;;;;;;5035169;28;20669;-82
2022/08/29 12:05:07;;;;;;;0.67;0.67;;;31.70;1.00;;;;;;5048951;28;20229;-82
2022/08/29 12:07:57;;;;;;;0.57;0.57;;;31.00;1.00;;;;;;5051938;28;20219;-80
2022/08/29 12:10:29;;;;;;;0.50;0.50;;;30.40;1.00;;;;;;5045186;28;20184;-80
2022/08/29 12:12:57;;;;;;;0.70;0.70;;;29.90;1.00;;;;;;5039516;28;20204;-80
2022/08/29 12:15:26;;;;;;;0.60;0.60;;;29.30;1.00;;;;;;5039701;28;20179;-81
2022/08/29 12:17:53;;;;;;;0.60;0.60;;;29.30;1.00;;;;;;5037791;28;20175;-79
2022/08/29 12:20:39;;;;;;;0.50;0.50;;;29.30;1.00;;;;;;5043855;28;20203;-77
2022/08/29 12:23:16;;;;;;;0.57;0.57;;;30.10;1.00;;;;;;5048557;28;20207;-81
2022/08/29 12:25:48;;;;;;;0.60;0.60;;;28.90;1.00;;;;;;5043262;28;20230;-78
2022/08/29 12:28:40;;;;;;;0.63;0.63;;;29.80;1.00;;;;;;5047703;28;20203;-79
2022/08/29 12:31:08;;;;;;;0.70;0.70;;;30.10;1.00;;;;;;5046496;28;20196;-80
2022/08/29 12:34:08;;;;;;;0.60;0.60;;;30.00;1.00;;;;;;5045524;28;20979;-80
2022/08/29 12:36:34;;;;;;;0.60;0.60;;;28.10;1.00;;;;;;5043083;28;20183;-81
2022/08/29 12:39:20;;;;;;;0.60;0.60;;;28.10;1.00;;;;;;5042765;28;20200;-81
2022/08/29 12:42:18;;;;;;;0.43;0.43;;;28.30;1.00;;;;;;5061187;28;20184;-82
2022/08/29 12:44:49;;;;;;;0.50;0.50;;;28.90;1.00;;;;;;5062803;28;20219;-84
2022/08/29 12:47:25;;;;;;;0.50;0.50;;;29.40;1.00;;;;;;5045680;28;20199;-78
2022/08/29 12:49:56;;;;;;;0.50;0.50;;;29.10;1.00;;;;;;5037118;28;20182;-82
2022/08/29 12:52:26;;;;;;;0.60;0.60;;;28.90;1.00;;;;;;5055141;28;20179;-79
2022/08/29 12:54:53;;;;;;;0.60;0.60;;;29.30;1.00;;;;;;5044167;28;20225;-82
2022/08/29 12:57:30;;;;;;;0.50;0.50;;;29.20;1.00;;;;;;5041286;28;20186;-78
2022/08/29 12:59:56;;;;;;;0.50;0.50;;;30.10;1.00;;;;;;5045627;28;20211;-78
2022/08/29 13:02:33;;;;;;;0.40;0.40;;;30.20;1.00;;;;;;5041546;28;20267;-82
2022/08/29 13:05:00;;;;;;;0.40;0.40;;;29.60;1.00;;;;;;5046100;28;20215;-80
2022/08/29 13:07:27;;;;;;;0.43;0.43;;;29.70;1.00;;;;;;5046716;28;20190;-79
2022/08/29 13:09:58;;;;;;;0.40;0.40;;;29.80;1.00;;;;;;5044584;28;20179;-80